createdAt,value
2022-09-01T05:14:56.469Z,61
2022-09-01T05:19:39.087Z,73
2022-09-01T05:24:20.398Z,84
2022-09-01T05:29:02.625Z,84
2022-09-01T05:33:44.926Z,106
2022-09-01T05:38:27.238Z,118
2022-09-01T05:43:09.450Z,123
2022-09-01T05:47:51.760Z,146
2022-09-01T05:52:34.080Z,157
2022-09-01T05:57:16.291Z,174
2022-09-01T06:01:58.606Z,191
2022-09-01T06:06:40.916Z,208
2022-09-01T06:11:23.127Z,225
2022-09-01T06:16:05.441Z,241
2022-09-01T06:20:47.753Z,270
2022-09-01T06:25:28.963Z,286
2022-09-01T06:30:11.279Z,303
2022-09-01T06:34:53.590Z,315
2022-09-01T06:39:35.802Z,320
2022-09-01T06:44:18.112Z,331
2022-09-01T06:49:00.427Z,337
2022-09-01T06:53:42.677Z,354
2022-09-01T06:58:23.968Z,354
2022-09-01T07:03:05.264Z,365
2022-09-01T07:07:47.612Z,393
2022-09-01T07:12:29.887Z,410
2022-09-01T07:17:12.114Z,416
2022-09-01T07:21:54.406Z,405
2022-09-01T07:26:36.715Z,416
2022-09-01T07:31:18.932Z,421
2022-09-01T07:36:01.244Z,433
2022-09-01T07:40:43.554Z,455
2022-09-01T07:45:25.767Z,483
2022-09-01T07:50:08.078Z,500
2022-09-01T07:54:50.391Z,500
2022-09-01T07:59:32.602Z,511
2022-09-01T08:04:13.910Z,523
2022-09-01T08:08:56.226Z,540
2022-09-01T08:13:38.433Z,568
2022-09-01T08:18:20.747Z,590
2022-09-01T08:23:03.056Z,618
2022-09-01T08:27:45.364Z,641
2022-09-01T08:32:27.583Z,635
2022-09-01T08:37:08.885Z,641
2022-09-01T08:41:50.199Z,697
2022-09-01T08:46:32.518Z,714
2022-09-01T08:51:14.728Z,697
2022-09-01T08:55:57.037Z,736
2022-09-01T09:00:39.342Z,613
2022-09-01T09:05:21.564Z,680
2022-09-01T09:10:03.870Z,630
2022-09-01T09:14:46.182Z,568
2022-09-01T09:19:28.392Z,568
2022-09-01T09:24:10.706Z,646
2022-09-01T09:28:53.017Z,675
2022-09-01T09:33:35.226Z,759
2022-09-01T09:38:17.536Z,1428
2022-09-01T09:42:58.850Z,680
2022-09-01T09:47:41.167Z,742
2022-09-01T09:52:23.373Z,630
2022-09-01T09:57:05.684Z,2475
2022-09-01T10:01:47.996Z,905
2022-09-01T10:06:30.211Z,2154
2022-09-01T10:11:12.519Z,793
2022-09-01T10:15:53.857Z,708
2022-09-01T10:20:35.188Z,635
2022-09-01T10:25:16.450Z,748
2022-09-01T10:29:57.805Z,2593
2022-09-01T10:34:40.010Z,1063
2022-09-01T10:39:22.281Z,961
2022-09-01T10:44:04.600Z,1839
2022-09-01T10:48:46.861Z,663
2022-09-01T10:53:29.166Z,348
2022-09-01T10:58:11.485Z,292
2022-09-01T11:02:53.702Z,315
2022-09-01T11:07:36.022Z,320
2022-09-01T11:12:18.292Z,320
2022-09-01T11:17:00.620Z,326
2022-09-01T11:21:42.817Z,365
2022-09-01T11:26:25.186Z,444
2022-09-01T11:31:06.518Z,534
2022-09-01T11:35:48.669Z,573
2022-09-01T11:40:31.010Z,635
2022-09-01T11:45:13.283Z,652
2022-09-01T11:49:55.488Z,708
2022-09-01T11:54:37.805Z,787
2022-09-01T11:59:20.071Z,804
2022-09-01T12:04:01.395Z,922
2022-09-01T12:08:42.687Z,911
2022-09-01T12:13:24.030Z,978
2022-09-01T12:18:05.353Z,1018
2022-09-01T12:22:47.576Z,1507
2022-09-01T12:27:28.849Z,1164
2022-09-01T12:32:10.185Z,1293
2022-09-01T12:36:52.481Z,1316
2022-09-01T12:41:34.709Z,1428
2022-09-01T12:46:17.022Z,1226
2022-09-01T12:50:59.324Z,1805
2022-09-01T12:55:41.492Z,3026
2022-09-01T13:00:23.800Z,1316
2022-09-01T13:05:06.118Z,2356
2022-09-01T13:09:48.437Z,2919
2022-09-01T13:14:30.635Z,945
2022-09-01T13:19:12.944Z,708
2022-09-01T13:23:55.278Z,720
2022-09-01T13:28:37.490Z,691
2022-09-01T13:33:18.775Z,838
2022-09-01T13:38:01.099Z,1479
2022-09-01T13:42:43.400Z,1029
2022-09-01T13:47:25.611Z,708
2022-09-01T13:52:07.935Z,2120
2022-09-01T13:56:50.239Z,1957
2022-09-01T14:01:32.443Z,2334
2022-09-01T14:06:13.780Z,1400
2022-09-01T14:10:55.060Z,483
2022-09-01T14:15:37.374Z,410
2022-09-01T14:20:19.720Z,433
2022-09-01T14:25:01.897Z,416
2022-09-01T14:34:26.524Z,579
2022-09-01T14:39:08.853Z,1839
2022-09-01T14:43:51.058Z,348
2022-09-01T14:48:33.358Z,185
2022-09-01T14:53:15.666Z,163
2022-09-01T14:57:57.873Z,157
2022-09-01T15:02:40.203Z,157
2022-09-01T15:07:22.500Z,168
2022-09-01T15:12:03.725Z,180
2022-09-01T15:16:46.015Z,208
2022-09-01T15:21:28.327Z,241
2022-09-01T15:26:10.635Z,292
2022-09-01T15:30:52.854Z,315
2022-09-01T15:35:35.155Z,303
2022-09-01T15:40:17.469Z,360
2022-09-01T15:44:58.770Z,371
2022-09-01T15:49:39.983Z,348
2022-09-01T15:54:21.317Z,388
2022-09-01T15:59:02.599Z,371
2022-09-01T16:03:44.909Z,354
2022-09-01T16:08:27.220Z,337
2022-09-01T16:13:09.452Z,315
2022-09-01T16:17:51.742Z,292
2022-09-01T16:22:34.062Z,270
2022-09-01T16:27:16.264Z,258
2022-09-01T16:31:58.647Z,225
2022-09-01T16:36:40.882Z,230
2022-09-01T16:41:23.110Z,236
2022-09-01T16:46:05.412Z,196
2022-09-01T16:50:47.789Z,174
2022-09-01T16:55:30.033Z,157
2022-09-01T17:00:11.419Z,140
2022-09-01T17:04:53.634Z,129
2022-09-01T17:09:35.850Z,112
2022-09-01T17:14:18.071Z,101
2022-09-01T17:19:00.377Z,95
2022-09-01T17:23:42.706Z,84
2022-09-01T17:28:24.898Z,67
2022-09-01T17:33:07.211Z,50
2022-09-01T17:37:48.517Z,33
2022-09-01T17:42:29.832Z,28
2022-09-01T17:47:12.130Z,16
2022-09-01T17:51:54.364Z,11
2022-09-01T17:56:36.657Z,5
2022-09-01T18:01:18.959Z,5
2022-09-01T18:06:01.173Z,0
2022-09-01T18:10:43.482Z,0
2022-09-01T18:15:25.791Z,0
2022-09-01T18:20:08.009Z,0
2022-09-01T18:24:50.317Z,0
2022-09-01T18:29:32.625Z,0
2022-09-01T18:34:14.939Z,0
2022-09-01T18:38:57.143Z,0
2022-09-01T18:43:38.451Z,0
2022-09-01T18:48:20.771Z,0
2022-09-01T18:53:02.970Z,0
2022-09-01T18:57:45.285Z,0
2022-09-01T19:02:27.591Z,0
2022-09-01T19:07:09.910Z,0
2022-09-01T19:11:52.123Z,0
2022-09-01T19:16:33.458Z,0
2022-09-01T19:21:14.738Z,0
2022-09-01T19:25:56.043Z,0
2022-09-01T19:30:37.346Z,0
2022-09-01T19:35:19.659Z,0
2022-09-01T19:40:01.878Z,0
2022-09-01T19:44:44.176Z,0
2022-09-01T19:49:26.486Z,0
2022-09-01T19:54:08.693Z,0
2022-09-01T19:58:51.074Z,0
2022-09-01T20:03:33.358Z,0
2022-09-01T20:08:15.524Z,0
2022-09-01T20:12:57.833Z,0
2022-09-01T20:17:40.147Z,0
2022-09-01T20:22:22.452Z,0
2022-09-01T20:27:04.670Z,0
2022-09-01T20:31:45.972Z,0
2022-09-01T20:36:28.280Z,0
2022-09-01T20:41:10.555Z,0
2022-09-01T20:45:52.813Z,0
2022-09-01T20:50:35.139Z,0
2022-09-01T20:55:17.422Z,0
2022-09-01T20:59:59.678Z,0
2022-09-01T21:04:40.939Z,0
2022-09-01T21:09:22.246Z,0
2022-09-01T21:14:04.568Z,0
2022-09-01T21:18:46.865Z,0
2022-09-01T21:23:29.075Z,0
2022-09-01T21:28:11.385Z,0
2022-09-01T21:32:53.720Z,0
2022-09-01T21:37:35.923Z,0
2022-09-01T21:42:18.213Z,0
2022-09-01T21:47:00.556Z,0
2022-09-01T21:51:42.796Z,0
2022-09-01T21:56:25.045Z,0
2022-09-01T22:01:07.401Z,0
2022-09-01T22:05:49.564Z,0
2022-09-01T22:10:30.884Z,0
2022-09-01T22:15:13.181Z,0
2022-09-01T22:19:55.532Z,0
2022-09-01T22:24:37.705Z,0
2022-09-01T22:29:20.044Z,0
2022-09-01T22:34:02.337Z,0
2022-09-01T22:38:44.631Z,0
2022-09-01T22:43:25.960Z,0
2022-09-01T22:48:07.147Z,0
2022-09-01T22:52:48.465Z,0
2022-09-01T22:57:29.819Z,0
2022-09-01T23:02:11.069Z,0
2022-09-01T23:06:52.375Z,0
2022-09-01T23:11:34.742Z,0
2022-09-01T23:16:17.009Z,0
2022-09-01T23:20:59.224Z,0
2022-09-01T23:25:41.547Z,0
2022-09-01T23:30:23.830Z,0
2022-09-01T23:35:06.056Z,0
2022-09-01T23:39:48.341Z,0
2022-09-01T23:44:30.664Z,0
2022-09-01T23:49:12.908Z,0
2022-09-01T23:53:55.168Z,0
2022-09-01T23:58:37.478Z,0
